Terminal Aerodrome Forecast
Issued by NWS Cleveland, OH

Home | Current Version | Previous Version | Text Only | Print | Product List | Glossary Off
Versions: 1 2 3 4 5 6 7 8 9 10 11 12 13 14 15 16 17 18

000
FTUS41 KCLE 221100
TAFYNG
TAF
KYNG 221136Z 2212/2312 26014G22KT 6SM -SHRA SCT015 OVC025
      TEMPO 2213/2217 5SM -SHRA OVC015
     FM221800 27020G30KT P6SM SCT020 OVC035
     FM230200 27012KT 5SM -SHSN OVC015=

USA.gov is the U.S. government's official web portal to all federal, state and local government web resources and services.